createdAt,value
2017-06-25T00:00:09.535Z,99.90
2017-06-25T00:02:37.759Z,99.90
2017-06-25T00:05:06.048Z,99.90
2017-06-25T00:07:34.107Z,99.90
2017-06-25T00:10:02.291Z,99.90
2017-06-25T00:12:30.355Z,99.90
2017-06-25T00:14:58.448Z,99.90
2017-06-25T00:17:26.697Z,99.90
2017-06-25T00:19:54.792Z,99.90
2017-06-25T00:22:22.931Z,99.90
2017-06-25T00:24:51.159Z,99.90
2017-06-25T00:27:19.259Z,99.90
2017-06-25T00:29:47.362Z,99.90
2017-06-25T00:32:15.987Z,99.90
2017-06-25T00:34:44.587Z,99.90
2017-06-25T00:37:13.943Z,99.90
2017-06-25T00:39:42.727Z,99.90
2017-06-25T00:42:11.516Z,99.90
2017-06-25T00:44:40.005Z,99.90
2017-06-25T00:47:08.186Z,99.90
2017-06-25T00:49:36.977Z,99.90
2017-06-25T00:52:05.122Z,99.90
2017-06-25T00:54:38.551Z,99.90
2017-06-25T00:57:07.119Z,99.90
2017-06-25T00:59:35.707Z,99.90
2017-06-25T01:02:04.592Z,99.90
2017-06-25T01:04:33.283Z,99.90
2017-06-25T01:07:02.166Z,99.90
2017-06-25T01:09:31.073Z,99.90
2017-06-25T01:11:59.859Z,99.90
2017-06-25T01:14:28.453Z,99.90
2017-06-25T01:16:56.743Z,99.90
2017-06-25T01:19:25.615Z,99.90
2017-06-25T01:21:53.716Z,99.90
2017-06-25T01:24:22.571Z,99.90
2017-06-25T01:26:51.323Z,99.90
2017-06-25T01:29:20.574Z,99.90
2017-06-25T01:31:49.559Z,99.90
2017-06-25T01:34:18.365Z,99.90
2017-06-25T01:36:46.891Z,99.90
2017-06-25T01:39:16.443Z,99.90
2017-06-25T01:41:45.244Z,99.90
2017-06-25T01:44:13.760Z,99.90
2017-06-25T01:46:43.239Z,99.90
2017-06-25T01:49:11.907Z,99.90
2017-06-25T01:51:40.600Z,99.90
2017-06-25T01:54:09.487Z,99.90
2017-06-25T01:56:37.655Z,99.90
2017-06-25T01:59:05.791Z,99.90
2017-06-25T02:01:34.038Z,99.90
2017-06-25T02:04:02.170Z,99.90
2017-06-25T02:06:30.268Z,99.90
2017-06-25T02:08:58.639Z,99.90
2017-06-25T02:11:26.826Z,99.90
2017-06-25T02:13:54.888Z,99.90
2017-06-25T02:16:23.183Z,99.90
2017-06-25T02:18:51.249Z,99.90
2017-06-25T02:21:19.350Z,99.90
2017-06-25T02:23:47.614Z,99.90
2017-06-25T02:26:15.655Z,99.90
2017-06-25T02:28:44.555Z,99.90
2017-06-25T02:31:13.267Z,99.90
2017-06-25T02:33:41.823Z,99.90
2017-06-25T02:36:09.931Z,99.90
2017-06-25T02:38:38.276Z,99.90
2017-06-25T02:41:06.455Z,99.90
2017-06-25T02:43:34.571Z,99.90
2017-06-25T02:46:02.860Z,99.90
2017-06-25T02:48:30.975Z,99.90
2017-06-25T02:50:59.123Z,99.90
2017-06-25T02:53:27.390Z,99.90
2017-06-25T02:55:55.573Z,99.90
2017-06-25T02:58:23.823Z,99.90
2017-06-25T03:00:52.055Z,99.90
2017-06-25T03:03:20.199Z,99.90
2017-06-25T03:05:48.379Z,99.90
2017-06-25T03:08:16.627Z,99.90
2017-06-25T03:10:45.171Z,99.90
2017-06-25T03:13:13.799Z,99.90
2017-06-25T03:15:42.707Z,99.90
2017-06-25T03:18:12.055Z,99.90
2017-06-25T03:20:40.849Z,99.90
2017-06-25T03:23:09.735Z,99.90
2017-06-25T03:25:38.435Z,99.90
2017-06-25T03:28:07.988Z,99.90
2017-06-25T03:30:37.631Z,99.90
2017-06-25T03:33:06.184Z,99.90
2017-06-25T03:35:34.720Z,99.90
2017-06-25T03:38:03.311Z,99.90
2017-06-25T03:40:32.083Z,99.90
2017-06-25T03:43:00.563Z,99.90
2017-06-25T03:45:28.881Z,99.90
2017-06-25T03:47:57.175Z,99.90
2017-06-25T03:50:26.523Z,99.90
2017-06-25T03:52:55.428Z,99.90
2017-06-25T03:55:23.935Z,99.90
2017-06-25T03:57:52.586Z,99.90
2017-06-25T04:00:21.483Z,99.90
2017-06-25T04:02:49.595Z,99.90
2017-06-25T04:05:17.727Z,99.90
2017-06-25T04:07:46.435Z,99.90
2017-06-25T04:10:14.559Z,99.90
2017-06-25T04:12:43.492Z,99.90
2017-06-25T04:15:12.164Z,99.90
2017-06-25T04:17:40.794Z,99.90
2017-06-25T04:20:09.648Z,99.90
2017-06-25T04:22:38.639Z,99.90
2017-06-25T04:25:07.441Z,99.90
2017-06-25T04:27:36.015Z,99.90
2017-06-25T04:30:04.844Z,99.90
2017-06-25T04:32:33.595Z,99.90
2017-06-25T04:35:02.441Z,99.90
2017-06-25T04:37:30.631Z,99.90
2017-06-25T04:39:58.732Z,99.90
2017-06-25T04:42:26.812Z,99.60
2017-06-25T04:44:55.075Z,99.10
2017-06-25T04:47:23.131Z,98.40
2017-06-25T04:49:51.261Z,97.50
2017-06-25T04:52:19.431Z,97.30
2017-06-25T04:54:47.570Z,95.90
2017-06-25T04:57:15.719Z,93.80
2017-06-25T04:59:43.947Z,90.20
2017-06-25T05:02:12.087Z,84.60
2017-06-25T05:04:40.627Z,80.50
2017-06-25T05:07:08.887Z,76.10
2017-06-25T05:09:37.291Z,73.90
2017-06-25T05:12:05.424Z,74.90
2017-06-25T05:14:33.787Z,76.50
2017-06-25T05:17:01.920Z,78.70
2017-06-25T05:19:30.020Z,79.40
2017-06-25T05:21:58.247Z,79.50
2017-06-25T05:24:26.355Z,79.30
2017-06-25T05:26:54.515Z,79.30
2017-06-25T05:29:22.760Z,76.80
2017-06-25T05:31:50.812Z,72.20
2017-06-25T05:34:18.979Z,69.80
2017-06-25T05:36:47.243Z,67.00
2017-06-25T05:39:15.360Z,64.40
2017-06-25T05:41:43.529Z,62.40
2017-06-25T05:44:11.791Z,60.60
2017-06-25T05:46:39.903Z,60.40
2017-06-25T05:49:07.957Z,63.10
2017-06-25T05:51:36.175Z,65.80
2017-06-25T05:54:04.339Z,67.40
2017-06-25T05:56:33.088Z,69.40
2017-06-25T05:59:02.083Z,72.10
2017-06-25T06:01:30.771Z,72.40
2017-06-25T06:03:58.899Z,73.30
2017-06-25T06:06:27.183Z,76.30
2017-06-25T06:08:55.711Z,80.50
2017-06-25T06:11:24.227Z,81.40
2017-06-25T06:13:53.072Z,79.40
2017-06-25T06:16:21.355Z,75.50
2017-06-25T06:18:49.931Z,73.60
2017-06-25T06:21:18.189Z,71.30
2017-06-25T06:23:46.703Z,69.00
2017-06-25T06:26:15.391Z,68.90
2017-06-25T06:28:44.279Z,64.40
2017-06-25T06:31:13.127Z,65.40
2017-06-25T06:33:42.466Z,66.90
2017-06-25T06:36:11.359Z,66.80
2017-06-25T06:38:40.154Z,69.60
2017-06-25T06:41:08.957Z,69.00
2017-06-25T06:43:37.623Z,73.50
2017-06-25T06:46:06.515Z,71.60
2017-06-25T06:48:35.227Z,71.50
2017-06-25T06:51:03.542Z,75.00
2017-06-25T06:53:33.051Z,75.70
2017-06-25T06:56:02.391Z,76.70
2017-06-25T06:58:31.291Z,76.80
2017-06-25T07:00:59.878Z,76.90
2017-06-25T07:03:28.526Z,78.10
2017-06-25T07:05:57.191Z,79.10
2017-06-25T07:08:25.304Z,78.80
2017-06-25T07:10:53.451Z,79.40
2017-06-25T07:13:22.899Z,77.40
2017-06-25T07:15:51.587Z,76.40
2017-06-25T07:18:20.336Z,75.70
2017-06-25T07:20:48.518Z,73.70
2017-06-25T07:23:16.667Z,69.60
2017-06-25T07:25:44.814Z,67.20
2017-06-25T07:28:13.019Z,65.90
2017-06-25T07:30:41.111Z,60.90
2017-06-25T07:33:09.430Z,61.10
2017-06-25T07:35:37.699Z,60.20
2017-06-25T07:38:05.839Z,58.00
2017-06-25T07:40:33.960Z,57.20
2017-06-25T07:43:02.856Z,58.70
2017-06-25T07:45:31.719Z,60.30
2017-06-25T07:47:59.859Z,64.10
2017-06-25T07:50:29.215Z,69.00
2017-06-25T07:52:57.895Z,68.50
2017-06-25T07:55:26.055Z,70.30
2017-06-25T07:57:54.315Z,68.30
2017-06-25T08:00:22.419Z,68.90
2017-06-25T08:02:50.551Z,66.60
2017-06-25T08:05:18.766Z,69.40
2017-06-25T08:07:46.828Z,74.30
2017-06-25T08:10:15.080Z,73.20
2017-06-25T08:12:43.363Z,74.70
2017-06-25T08:15:11.547Z,75.20
2017-06-25T08:17:39.714Z,75.50
2017-06-25T08:20:08.039Z,72.40
2017-06-25T08:22:36.147Z,64.60
2017-06-25T08:25:04.328Z,64.70
2017-06-25T08:27:33.831Z,69.10
2017-06-25T08:30:01.884Z,68.20
2017-06-25T08:32:30.391Z,70.00
2017-06-25T08:34:59.738Z,71.00
2017-06-25T08:37:29.012Z,70.90
2017-06-25T08:39:58.565Z,74.20
2017-06-25T08:42:27.407Z,74.20
2017-06-25T08:44:56.756Z,67.30
2017-06-25T08:47:25.355Z,67.30
2017-06-25T08:49:53.912Z,70.60
2017-06-25T08:52:22.663Z,67.40
2017-06-25T08:54:51.919Z,69.80
2017-06-25T08:57:20.131Z,69.70
2017-06-25T08:59:49.596Z,72.80
2017-06-25T09:02:17.703Z,72.00
2017-06-25T09:04:47.027Z,74.40
2017-06-25T09:07:15.115Z,74.10
2017-06-25T09:09:43.672Z,76.00
2017-06-25T09:12:11.896Z,75.10
2017-06-25T09:14:40.602Z,79.60
2017-06-25T09:17:08.759Z,77.30
2017-06-25T09:19:37.725Z,77.70
2017-06-25T09:22:06.716Z,74.50
2017-06-25T09:24:36.153Z,75.30
2017-06-25T09:27:04.422Z,75.20
2017-06-25T09:29:32.911Z,72.90
2017-06-25T09:32:00.998Z,72.70
2017-06-25T09:34:29.723Z,67.60
2017-06-25T09:36:57.860Z,63.70
2017-06-25T09:39:26.471Z,61.70
2017-06-25T09:41:55.304Z,60.00
2017-06-25T09:44:23.924Z,59.30
2017-06-25T09:46:52.075Z,56.70
2017-06-25T09:49:20.871Z,57.90
2017-06-25T09:51:49.559Z,53.90
2017-06-25T09:54:17.699Z,58.30
2017-06-25T09:56:47.461Z,54.60
2017-06-25T09:59:15.608Z,54.00
2017-06-25T10:01:43.768Z,53.80
2017-06-25T10:04:12.027Z,52.00
2017-06-25T10:06:40.179Z,50.10
2017-06-25T10:09:08.323Z,51.50
2017-06-25T10:11:36.539Z,52.30
2017-06-25T10:14:04.635Z,53.30
2017-06-25T10:16:33.927Z,49.40
2017-06-25T10:19:02.160Z,49.30
2017-06-25T10:21:31.551Z,49.60
2017-06-25T10:24:00.511Z,51.00
2017-06-25T10:26:30.103Z,45.80
2017-06-25T10:28:58.860Z,45.80
2017-06-25T10:31:27.699Z,47.90
2017-06-25T10:33:55.967Z,48.00
2017-06-25T10:36:24.143Z,49.40
2017-06-25T10:38:52.319Z,49.70
2017-06-25T10:41:20.487Z,48.20
2017-06-25T10:43:48.659Z,48.70
2017-06-25T10:46:16.724Z,46.70
2017-06-25T10:48:45.003Z,48.60
2017-06-25T10:51:13.170Z,51.40
2017-06-25T10:53:41.283Z,48.60
2017-06-25T10:56:09.623Z,52.60
2017-06-25T10:58:37.788Z,51.70
2017-06-25T11:01:05.969Z,51.10
2017-06-25T11:03:34.232Z,49.90
2017-06-25T11:06:02.327Z,51.10
2017-06-25T11:08:30.496Z,50.90
2017-06-25T11:11:05.613Z,49.40
2017-06-25T11:13:33.765Z,50.10
2017-06-25T11:16:01.859Z,48.40
2017-06-25T11:18:30.495Z,49.30
2017-06-25T11:20:59.711Z,49.60
2017-06-25T11:23:28.224Z,49.20
2017-06-25T11:25:57.219Z,50.20
2017-06-25T11:28:25.811Z,52.40
2017-06-25T11:30:54.602Z,52.50
2017-06-25T11:33:22.815Z,51.90
2017-06-25T11:35:51.463Z,52.90
2017-06-25T11:38:20.208Z,53.10
2017-06-25T11:40:49.760Z,50.70
2017-06-25T11:43:18.449Z,50.70
2017-06-25T11:45:47.245Z,51.70
2017-06-25T11:48:17.993Z,52.50
2017-06-25T11:50:46.688Z,52.30
2017-06-25T11:53:21.905Z,50.30
2017-06-25T11:55:53.550Z,50.30
2017-06-25T11:58:29.260Z,50.20
2017-06-25T12:00:59.368Z,51.90
2017-06-25T12:03:28.129Z,51.20
2017-06-25T12:05:57.032Z,50.60
2017-06-25T12:08:30.118Z,50.80
2017-06-25T12:10:58.655Z,52.00
2017-06-25T12:13:27.263Z,50.70
2017-06-25T12:15:55.454Z,52.10
2017-06-25T12:18:24.125Z,51.80
2017-06-25T12:20:52.254Z,50.70
2017-06-25T12:23:20.433Z,50.60
2017-06-25T12:25:48.614Z,48.20
2017-06-25T12:28:16.880Z,47.80
2017-06-25T12:30:46.180Z,47.00
2017-06-25T12:33:14.670Z,46.20
2017-06-25T12:35:44.015Z,43.20
2017-06-25T12:38:12.811Z,43.20
2017-06-25T12:40:41.067Z,43.20
2017-06-25T12:43:09.203Z,41.80
2017-06-25T12:45:37.343Z,41.40
2017-06-25T12:48:05.602Z,40.50
2017-06-25T12:50:33.655Z,39.90
2017-06-25T12:53:01.833Z,41.00
2017-06-25T12:55:30.607Z,41.60
2017-06-25T12:58:00.068Z,41.90
2017-06-25T13:00:28.584Z,41.90
2017-06-25T13:02:58.351Z,44.70
2017-06-25T13:05:27.256Z,44.70
2017-06-25T13:07:55.319Z,46.10
2017-06-25T13:10:23.607Z,46.70
2017-06-25T13:12:51.702Z,47.50
2017-06-25T13:15:19.795Z,48.30
2017-06-25T13:17:48.084Z,48.90
2017-06-25T13:20:16.184Z,51.40
2017-06-25T13:22:44.332Z,52.80
2017-06-25T13:25:12.627Z,51.60
2017-06-25T13:27:40.764Z,52.50
2017-06-25T13:30:09.026Z,53.90
2017-06-25T13:32:37.271Z,55.60
2017-06-25T13:35:05.367Z,56.20
2017-06-25T13:37:33.543Z,62.40
2017-06-25T13:40:02.027Z,70.40
2017-06-25T13:42:30.130Z,72.50
2017-06-25T13:44:59.686Z,72.60
2017-06-25T13:47:28.471Z,72.50
2017-06-25T13:49:57.259Z,75.00
2017-06-25T13:52:25.995Z,74.50
2017-06-25T13:54:55.521Z,74.60
2017-06-25T13:57:23.703Z,74.70
2017-06-25T13:59:51.835Z,77.10
2017-06-25T14:02:20.067Z,82.60
2017-06-25T14:04:48.172Z,81.40
2017-06-25T14:07:16.751Z,83.40
2017-06-25T14:09:45.591Z,85.50
2017-06-25T14:12:14.931Z,88.30
2017-06-25T14:14:43.579Z,88.10
2017-06-25T14:17:11.795Z,88.40
2017-06-25T14:19:40.999Z,89.10
2017-06-25T14:22:09.525Z,91.00
2017-06-25T14:24:38.478Z,91.40
2017-06-25T14:27:07.119Z,92.00
2017-06-25T14:29:35.191Z,92.60
2017-06-25T14:32:04.762Z,94.20
2017-06-25T14:34:33.429Z,94.20
2017-06-25T14:37:02.112Z,95.30
2017-06-25T14:39:31.010Z,95.80
2017-06-25T14:41:59.700Z,96.60
2017-06-25T14:44:27.767Z,95.30
2017-06-25T14:46:55.992Z,95.70
2017-06-25T14:49:25.451Z,97.00
2017-06-25T14:51:54.243Z,96.70
2017-06-25T14:54:22.948Z,97.30
2017-06-25T14:56:51.511Z,96.50
2017-06-25T14:59:20.105Z,96.40
2017-06-25T15:01:48.307Z,96.30
2017-06-25T15:04:16.475Z,96.10
2017-06-25T15:06:45.039Z,96.70
2017-06-25T15:09:13.271Z,96.60
2017-06-25T15:11:41.411Z,97.40
2017-06-25T15:14:09.535Z,97.70
2017-06-25T15:16:37.788Z,98.30
2017-06-25T15:19:05.921Z,98.60
2017-06-25T15:21:34.055Z,98.30
2017-06-25T15:24:02.303Z,98.50
2017-06-25T15:26:30.887Z,99.70
2017-06-25T15:28:59.635Z,99.50
2017-06-25T15:31:28.478Z,99.60
2017-06-25T15:33:56.690Z,99.90
2017-06-25T15:36:25.387Z,99.90
2017-06-25T15:38:54.185Z,99.90
2017-06-25T15:41:22.347Z,99.90
2017-06-25T15:43:50.629Z,99.90
2017-06-25T15:46:18.867Z,99.90
2017-06-25T15:48:46.963Z,99.90
2017-06-25T15:51:15.047Z,99.90
2017-06-25T15:53:43.336Z,99.90
2017-06-25T15:56:11.467Z,99.90
2017-06-25T15:58:39.603Z,99.90
2017-06-25T16:01:07.815Z,99.90
2017-06-25T16:03:35.900Z,99.90
2017-06-25T16:06:04.003Z,99.90
2017-06-25T16:08:32.198Z,99.90
2017-06-25T16:11:00.355Z,99.90
2017-06-25T16:13:28.455Z,99.90
2017-06-25T16:15:57.271Z,99.90
2017-06-25T16:18:26.019Z,99.90
2017-06-25T16:20:54.711Z,99.90
2017-06-25T16:23:24.404Z,98.60
2017-06-25T16:25:52.538Z,98.60
2017-06-25T16:28:22.143Z,97.80
2017-06-25T16:30:50.383Z,97.70
2017-06-25T16:33:19.043Z,97.60
2017-06-25T16:35:47.943Z,97.70
2017-06-25T16:38:16.203Z,98.00
2017-06-25T16:40:44.747Z,98.50
2017-06-25T16:43:13.495Z,98.80
2017-06-25T16:45:42.487Z,99.20
2017-06-25T16:48:10.555Z,99.40
2017-06-25T16:50:39.251Z,99.70
2017-06-25T16:53:07.977Z,99.70
2017-06-25T16:55:37.435Z,99.90
2017-06-25T16:58:05.563Z,99.50
2017-06-25T17:00:35.124Z,99.80
2017-06-25T17:03:03.263Z,99.50
2017-06-25T17:05:31.395Z,99.40
2017-06-25T17:07:59.607Z,99.20
2017-06-25T17:10:29.167Z,99.70
2017-06-25T17:12:57.843Z,99.30
2017-06-25T17:15:26.635Z,99.70
2017-06-25T17:17:55.277Z,99.50
2017-06-25T17:20:24.624Z,99.90
2017-06-25T17:22:53.571Z,99.90
2017-06-25T17:25:22.910Z,99.90
2017-06-25T17:27:51.708Z,99.90
2017-06-25T17:30:19.888Z,99.90
2017-06-25T17:32:48.568Z,99.90
2017-06-25T17:35:17.264Z,99.90
2017-06-25T17:37:53.432Z,99.90
2017-06-25T17:40:21.967Z,99.90
2017-06-25T17:42:50.751Z,99.90
2017-06-25T17:45:18.975Z,99.90
2017-06-25T17:47:47.119Z,99.90
2017-06-25T17:50:15.945Z,99.90
2017-06-25T17:52:44.910Z,99.90
2017-06-25T17:55:13.059Z,99.90
2017-06-25T17:57:42.231Z,99.90
2017-06-25T18:00:10.567Z,99.90
2017-06-25T18:02:39.171Z,99.90
2017-06-25T18:05:07.696Z,99.90
2017-06-25T18:07:37.967Z,99.90
2017-06-25T18:10:08.884Z,99.90
2017-06-25T18:12:37.495Z,99.90
2017-06-25T18:15:06.300Z,99.90
2017-06-25T18:17:35.079Z,99.90
2017-06-25T18:20:03.157Z,99.90
2017-06-25T18:22:31.432Z,99.90
2017-06-25T18:24:59.567Z,99.90
2017-06-25T18:27:27.628Z,99.90
2017-06-25T18:29:55.827Z,99.90
2017-06-25T18:32:23.984Z,99.90
2017-06-25T18:34:52.139Z,99.90
2017-06-25T18:37:20.431Z,99.90
2017-06-25T18:39:50.042Z,99.90
2017-06-25T18:42:19.379Z,99.90
2017-06-25T18:44:48.342Z,99.90
2017-06-25T18:47:17.584Z,99.90
2017-06-25T18:49:46.375Z,99.90
2017-06-25T18:52:14.987Z,99.90
2017-06-25T18:54:43.055Z,99.90
2017-06-25T18:57:11.923Z,99.90
2017-06-25T18:59:40.627Z,99.90
2017-06-25T19:02:09.295Z,99.90
2017-06-25T19:04:38.087Z,99.90
2017-06-25T19:07:07.084Z,99.90
2017-06-25T19:09:35.203Z,99.90
2017-06-25T19:12:04.867Z,99.90
2017-06-25T19:14:33.571Z,99.90
2017-06-25T19:17:01.699Z,99.90
2017-06-25T19:19:29.755Z,99.90
2017-06-25T19:21:59.568Z,99.90
2017-06-25T19:24:29.015Z,99.90
2017-06-25T19:26:57.110Z,99.90
2017-06-25T19:29:26.253Z,99.90
2017-06-25T19:31:54.499Z,99.90
2017-06-25T19:34:23.364Z,99.90
2017-06-25T19:36:52.083Z,99.90
2017-06-25T19:39:20.129Z,99.90
2017-06-25T19:41:49.115Z,99.90
2017-06-25T19:44:18.059Z,99.90
2017-06-25T19:46:47.318Z,99.90
2017-06-25T19:49:16.235Z,99.90
2017-06-25T19:51:45.195Z,99.90
2017-06-25T19:54:13.283Z,99.90
2017-06-25T19:56:41.406Z,99.90
2017-06-25T19:59:09.656Z,99.90
2017-06-25T20:01:38.358Z,99.90
2017-06-25T20:04:07.811Z,99.90
2017-06-25T20:06:36.808Z,99.90
2017-06-25T20:09:05.798Z,99.90
2017-06-25T20:11:34.487Z,99.90
2017-06-25T20:14:03.195Z,99.90
2017-06-25T20:16:31.291Z,99.90
2017-06-25T20:19:00.049Z,99.90
2017-06-25T20:21:28.303Z,99.90
2017-06-25T20:23:56.899Z,99.20
2017-06-25T20:26:25.790Z,98.30
2017-06-25T20:28:54.391Z,97.70
2017-06-25T20:31:22.951Z,97.00
2017-06-25T20:33:51.751Z,96.50
2017-06-25T20:36:20.747Z,96.30
2017-06-25T20:38:49.639Z,95.70
2017-06-25T20:41:17.810Z,95.30
2017-06-25T20:43:46.799Z,94.80
2017-06-25T20:46:15.447Z,94.60
2017-06-25T20:48:44.801Z,94.70
2017-06-25T20:51:13.679Z,94.70
2017-06-25T20:53:42.431Z,95.30
2017-06-25T20:56:11.824Z,96.00
2017-06-25T20:58:41.958Z,96.00
2017-06-25T21:01:10.059Z,96.40
2017-06-25T21:03:38.763Z,96.70
2017-06-25T21:06:07.755Z,97.10
2017-06-25T21:08:36.443Z,97.00
2017-06-25T21:11:05.032Z,97.30
2017-06-25T21:13:33.821Z,97.20
2017-06-25T21:16:02.711Z,97.20
2017-06-25T21:18:31.456Z,97.60
2017-06-25T21:20:59.716Z,98.00
2017-06-25T21:23:27.899Z,98.20
2017-06-25T21:25:57.248Z,98.70
2017-06-25T21:28:26.154Z,98.70
2017-06-25T21:30:54.995Z,99.00
2017-06-25T21:33:24.435Z,99.20
2017-06-25T21:35:53.235Z,99.20
2017-06-25T21:38:21.975Z,99.20
2017-06-25T21:40:51.416Z,99.70
2017-06-25T21:43:20.219Z,99.80
2017-06-25T21:45:48.451Z,99.90
2017-06-25T21:48:17.955Z,99.90
2017-06-25T21:50:47.604Z,99.90
2017-06-25T21:53:15.743Z,99.90
2017-06-25T21:55:45.191Z,99.90
2017-06-25T21:58:13.367Z,99.90
2017-06-25T22:00:41.499Z,99.90
2017-06-25T22:03:10.744Z,99.90
2017-06-25T22:05:39.735Z,99.90
2017-06-25T22:08:08.527Z,99.90
2017-06-25T22:10:36.948Z,99.90
2017-06-25T22:13:05.204Z,99.90
2017-06-25T22:15:34.071Z,99.90
2017-06-25T22:18:02.595Z,99.90
2017-06-25T22:33:16.695Z,99.90
2017-06-25T22:35:45.492Z,99.90
2017-06-25T22:38:14.227Z,99.90
2017-06-25T22:40:43.680Z,99.90
2017-06-25T22:43:12.523Z,99.90
2017-06-25T22:45:41.872Z,99.90
2017-06-25T22:48:10.971Z,99.90
2017-06-25T22:50:39.759Z,99.90
2017-06-25T22:53:07.894Z,99.90
2017-06-25T22:55:37.543Z,99.90
2017-06-25T22:58:06.027Z,99.90
2017-06-25T23:00:34.708Z,99.90
2017-06-25T23:03:03.511Z,99.90
2017-06-25T23:05:32.395Z,99.90
2017-06-25T23:08:01.197Z,99.90
2017-06-25T23:10:29.807Z,99.90
2017-06-25T23:12:58.460Z,99.90
2017-06-25T23:15:27.310Z,99.90
2017-06-25T23:17:56.748Z,99.90
2017-06-25T23:20:25.443Z,99.90
2017-06-25T23:22:54.028Z,99.90
2017-06-25T23:25:22.860Z,99.90
2017-06-25T23:27:51.507Z,99.90
2017-06-25T23:30:20.246Z,99.90
2017-06-25T23:32:49.688Z,99.90
2017-06-25T23:35:18.383Z,99.90
2017-06-25T23:37:47.184Z,99.90
2017-06-25T23:40:15.371Z,99.90
2017-06-25T23:42:44.091Z,99.90
2017-06-25T23:45:13.430Z,99.90
2017-06-25T23:47:42.324Z,99.90
2017-06-25T23:50:11.229Z,99.90
2017-06-25T23:52:39.923Z,99.90
2017-06-25T23:55:08.199Z,99.90
2017-06-25T23:57:36.343Z,99.90
